Time;durP1;ratioP1;P1;durP2;ratioP2;P2;SDS_P1;SDS_P2;PMS_P1;PMS_P2;Temp;Humidity;BMP_temperature;BMP_pressure;BME280_temperature;BME280_humidity;BME280_pressure;Samples;Min_cycle;Max_cycle;Signal;HPM_P1;HPM_P2
2022/04/27 00:01:54;;;;;;;5.00;4.60;;;;;;;6.56;90.36;95804.56;5089114;28;20032;-60
2022/04/27 00:04:19;;;;;;;5.00;4.70;;;;;;;6.57;90.34;95811.44;5089089;28;20115;-60
2022/04/27 00:06:45;;;;;;;5.72;5.28;;;;;;;6.57;89.76;95808.84;5087240;28;20499;-60
2022/04/27 00:09:11;;;;;;;5.80;5.28;;;;;;;6.55;90.56;95802.03;5088902;28;20028;-60
2022/04/27 00:11:37;;;;;;;5.85;5.35;;;;;;;6.48;91.29;95806.06;5093631;28;20032;-60
2022/04/27 00:14:03;;;;;;;6.82;6.22;;;;;;;6.43;91.06;95809.84;5091326;28;20913;-60
2022/04/27 00:16:29;;;;;;;6.85;6.18;;;;;;;6.40;91.03;95802.22;5095326;28;20026;-60
2022/04/27 00:18:55;;;;;;;6.65;5.70;;;;;;;6.36;91.68;95802.56;5093227;28;20016;-60
2022/04/27 00:21:20;;;;;;;5.82;5.32;;;;;;;6.35;90.41;95799.13;5095460;28;20493;-60
2022/04/27 00:23:46;;;;;;;6.10;5.53;;;;;;;6.30;92.44;95798.63;5092870;28;20491;-60
2022/04/27 00:26:12;;;;;;;8.38;5.35;;;;;;;6.26;91.50;95800.63;5095236;28;20024;-60
2022/04/27 00:28:37;;;;;;;5.30;4.90;;;;;;;6.28;90.87;95793.50;5091938;28;20028;-60
2022/04/27 00:31:03;;;;;;;6.65;5.97;;;;;;;6.23;91.89;95790.38;5094150;28;20031;-60
2022/04/27 00:33:28;;;;;;;5.57;5.07;;;;;;;6.23;91.93;95789.56;5096424;28;20504;-60
2022/04/27 00:35:54;;;;;;;6.53;6.03;;;;;;;6.19;92.55;95795.94;5088157;28;20077;-60
2022/04/27 00:38:19;;;;;;;5.88;5.38;;;;;;;6.16;91.83;95789.19;5093338;28;20039;-60
2022/04/27 00:40:45;;;;;;;7.57;5.28;;;;;;;6.16;92.95;95797.03;5093196;28;20487;-60
2022/04/27 00:43:14;;;;;;;5.57;5.10;;;;;;;6.14;92.33;95791.91;5092066;28;20036;-60
2022/04/27 00:45:39;;;;;;;5.45;5.05;;;;;;;6.12;92.06;95795.59;5087911;28;20551;-60
2022/04/27 00:48:05;;;;;;;5.95;5.40;;;;;;;6.09;92.14;95793.19;5089451;28;20028;-60
2022/04/27 00:50:31;;;;;;;6.30;5.70;;;;;;;6.07;92.04;95802.91;5086720;28;20044;-60
2022/04/27 00:52:56;;;;;;;6.40;4.90;;;;;;;6.02;91.64;95798.84;5090391;28;20067;-60
2022/04/27 00:55:22;;;;;;;8.38;5.05;;;;;;;5.99;92.78;95796.44;5090596;28;20074;-60
2022/04/27 00:57:47;;;;;;;6.90;5.30;;;;;;;6.01;92.94;95796.38;5091852;28;20111;-60
2022/04/27 01:00:14;;;;;;;5.63;5.05;;;;;;;5.96;92.60;95796.66;5074923;28;20110;-60
2022/04/27 01:02:40;;;;;;;5.80;5.13;;;;;;;5.93;93.09;95789.03;5096890;28;20103;-60
2022/04/27 01:05:09;;;;;;;5.55;5.10;;;;;;;5.88;93.71;95794.59;5094712;28;20111;-61
2022/04/27 01:07:37;;;;;;;4.75;4.35;;;;;;;5.86;94.06;95803.50;5090802;28;20028;-60
2022/04/27 01:10:02;;;;;;;5.05;4.65;;;;;;;5.81;92.95;95795.13;5090479;28;20043;-60
2022/04/27 01:12:28;;;;;;;5.07;4.68;;;;;;;5.79;92.97;95792.66;5092153;28;20024;-60
2022/04/27 01:14:53;;;;;;;5.07;4.68;;;;;;;5.79;92.49;95794.41;5091011;28;20032;-60
2022/04/27 01:17:21;;;;;;;5.00;4.70;;;;;;;5.74;92.73;95799.97;5088156;28;20034;-60
2022/04/27 01:19:46;;;;;;;5.43;5.03;;;;;;;5.73;92.31;95791.31;5095882;28;20070;-60
2022/04/27 01:22:12;;;;;;;4.72;4.43;;;;;;;5.70;92.89;95799.38;5094102;28;20064;-60
2022/04/27 01:24:38;;;;;;;5.22;4.72;;;;;;;5.61;93.42;95789.56;5090528;28;20472;-60
2022/04/27 01:27:03;;;;;;;5.10;4.70;;;;;;;5.61;93.40;95789.56;5088634;28;20169;-60
2022/04/27 01:29:30;;;;;;;4.78;4.47;;;;;;;5.61;93.74;95791.34;5092455;28;20028;-60
2022/04/27 01:31:57;;;;;;;4.85;4.50;;;;;;;5.55;93.83;95790.00;5085689;28;20020;-60
2022/04/27 01:34:23;;;;;;;4.80;4.40;;;;;;;5.53;93.82;95791.88;5089522;28;20617;-60
2022/04/27 01:36:48;;;;;;;5.18;4.78;;;;;;;5.52;94.13;95792.81;5089782;28;20076;-60
2022/04/27 01:39:14;;;;;;;5.03;4.63;;;;;;;5.52;94.16;95790.22;5091091;28;20028;-60
2022/04/27 01:41:40;;;;;;;5.50;5.00;;;;;;;5.51;93.40;95793.78;5098224;28;20050;-59
2022/04/27 01:44:05;;;;;;;5.40;4.82;;;;;;;5.49;94.19;95791.25;5092196;28;20047;-60
2022/04/27 01:46:31;;;;;;;6.10;4.80;;;;;;;5.50;93.50;95789.50;5087399;28;20447;-60
2022/04/27 01:48:57;;;;;;;5.07;4.68;;;;;;;5.49;93.02;95790.44;5090442;28;20666;-60
2022/04/27 01:54:16;;;;;;;4.85;4.55;;;;;;;5.37;93.84;95798.16;5091597;28;20039;-60
2022/04/27 01:56:43;;;;;;;5.20;4.80;;;;;;;5.36;93.86;95801.72;5088767;28;20031;-60
2022/04/27 01:59:09;;;;;;;4.72;4.43;;;;;;;5.32;94.05;95797.66;5088507;28;20514;-60
2022/04/27 02:01:34;;;;;;;6.13;4.95;;;;;;;5.33;93.60;95801.94;5094606;28;20062;-60
2022/04/27 02:04:00;;;;;;;4.80;4.50;;;;;;;5.33;93.81;95801.94;5087361;28;20040;-60
2022/04/27 02:06:25;;;;;;;5.53;5.03;;;;;;;5.29;94.24;95801.31;5091909;28;20475;-60
2022/04/27 02:08:51;;;;;;;6.35;5.50;;;;;;;5.29;94.68;95803.94;5097139;28;20038;-60
2022/04/27 02:11:20;;;;;;;5.40;4.68;;;;;;;5.24;94.78;95805.22;5089937;28;20028;-60
2022/04/27 02:13:46;;;;;;;5.55;5.15;;;;;;;5.21;95.35;95810.66;5094963;28;20019;-60
2022/04/27 02:16:11;;;;;;;6.30;5.72;;;;;;;5.20;94.63;95809.78;5095421;28;20146;-60
2022/04/27 02:18:37;;;;;;;5.40;5.00;;;;;;;5.21;94.82;95819.28;5094780;28;20503;-60
2022/04/27 02:21:03;;;;;;;5.85;5.35;;;;;;;5.20;94.55;95822.84;5087693;28;20664;-61
2022/04/27 02:23:28;;;;;;;6.15;5.35;;;;;;;5.16;95.06;95822.22;5091190;28;20024;-60
2022/04/27 02:25:57;;;;;;;6.32;4.88;;;;;;;5.16;94.45;95821.41;5090134;28;20024;-60
2022/04/27 02:28:22;;;;;;;5.80;5.30;;;;;;;5.15;94.57;95825.75;5088192;28;20027;-60
2022/04/27 02:30:47;;;;;;;5.38;4.97;;;;;;;5.15;94.75;95830.97;5092527;28;20486;-60
2022/04/27 02:33:13;;;;;;;5.68;5.28;;;;;;;5.12;93.87;95825.16;5087724;28;20032;-60
2022/04/27 02:35:38;;;;;;;6.65;5.00;;;;;;;5.05;94.23;95827.34;5091585;28;20035;-60
2022/04/27 02:38:03;;;;;;;5.75;5.25;;;;;;;4.98;94.69;95828.72;5086270;28;20023;-60
2022/04/27 02:40:29;;;;;;;5.78;5.28;;;;;;;4.94;95.10;95837.66;5093320;28;20028;-60
2022/04/27 02:42:54;;;;;;;6.03;5.07;;;;;;;4.94;95.23;95835.06;5090139;28;20032;-60
2022/04/27 02:45:19;;;;;;;5.53;5.03;;;;;;;4.90;94.75;95833.59;5079604;28;20550;-60
2022/04/27 02:47:45;;;;;;;5.20;4.80;;;;;;;4.85;95.17;95829.53;5091097;28;20134;-61
2022/04/27 02:52:54;;;;;;;4.57;4.22;;;;;;;4.77;95.18;95831.81;5091582;28;20117;-60
2022/04/27 02:55:19;;;;;;;5.43;5.03;;;;;;;4.75;94.80;95833.69;5091050;28;20067;-60
2022/04/27 02:57:45;;;;;;;7.10;5.28;;;;;;;4.74;95.17;95837.22;5091810;28;20028;-60
2022/04/27 03:00:10;;;;;;;5.57;5.07;;;;;;;4.69;95.00;95832.34;5091079;28;20028;-60
2022/04/27 03:02:36;;;;;;;4.85;4.45;;;;;;;4.67;95.43;95826.38;5090199;28;20446;-60
2022/04/27 03:05:01;;;;;;;6.07;4.70;;;;;;;4.61;95.58;95825.94;5091865;28;20392;-61
2022/04/27 03:07:30;;;;;;;4.50;4.20;;;;;;;4.56;96.11;95824.50;5096240;28;20043;-60
2022/04/27 03:09:55;;;;;;;4.80;4.47;;;;;;;4.52;96.73;95825.59;5092820;28;20507;-61
2022/04/27 03:12:21;;;;;;;4.65;4.35;;;;;;;4.53;96.13;95835.13;5094263;28;20062;-60
2022/04/27 03:14:46;;;;;;;4.97;4.38;;;;;;;4.51;96.01;95823.94;5092216;28;20036;-61
2022/04/27 03:17:12;;;;;;;4.35;4.05;;;;;;;4.54;96.23;95835.94;5093025;28;20028;-60
2022/04/27 03:19:37;;;;;;;5.15;4.75;;;;;;;4.51;96.79;95831.75;5089647;28;20024;-61
2022/04/27 03:22:03;;;;;;;4.38;4.07;;;;;;;4.49;96.17;95830.22;5086852;28;20024;-60
2022/04/27 03:24:29;;;;;;;5.35;4.95;;;;;;;4.43;96.53;95829.69;5096573;28;20608;-60
2022/04/27 03:26:54;;;;;;;4.47;4.03;;;;;;;4.38;96.59;95833.53;5091881;28;20028;-60
2022/04/27 03:29:20;;;;;;;4.43;4.13;;;;;;;4.33;96.37;95833.81;5093738;28;20020;-60
2022/04/27 03:31:45;;;;;;;4.40;4.10;;;;;;;4.28;96.35;95839.31;5091523;28;20102;-60
2022/04/27 03:34:11;;;;;;;4.75;4.35;;;;;;;4.26;96.54;95833.38;5093588;28;20028;-60
2022/04/27 03:36:36;;;;;;;5.20;4.80;;;;;;;4.26;96.81;95840.38;5095349;28;20395;-60
2022/04/27 03:39:02;;;;;;;4.07;3.85;;;;;;;4.24;96.25;95835.25;5093471;28;20529;-60
2022/04/27 03:41:28;;;;;;;4.45;4.05;;;;;;;4.22;96.35;95842.31;5095608;28;20039;-60
2022/04/27 03:43:54;;;;;;;4.18;3.78;;;;;;;4.20;96.45;95838.97;5092412;28;20046;-60
2022/04/27 03:46:19;;;;;;;5.82;3.78;;;;;;;4.21;96.12;95835.44;5095420;28;20085;-60
2022/04/27 03:48:46;;;;;;;4.82;4.43;;;;;;;4.18;95.87;95840.84;5093349;28;20421;-60
2022/04/27 03:51:12;;;;;;;3.65;3.45;;;;;;;4.14;96.31;95839.38;5096743;28;20446;-60
2022/04/27 03:53:38;;;;;;;4.45;4.07;;;;;;;4.13;96.58;95838.53;5098262;28;20497;-60
2022/04/27 03:56:04;;;;;;;3.63;3.33;;;;;;;4.12;96.37;95844.69;5093797;28;20024;-60
2022/04/27 03:58:29;;;;;;;3.97;3.67;;;;;;;4.10;96.80;95840.53;5100838;28;20099;-60
2022/04/27 04:00:54;;;;;;;3.88;3.63;;;;;;;4.09;96.88;95841.44;5098585;28;20081;-60
2022/04/27 04:03:20;;;;;;;3.78;3.58;;;;;;;4.09;96.63;95844.88;5094438;28;20478;-60
2022/04/27 04:05:46;;;;;;;4.35;4.05;;;;;;;4.06;96.19;95847.69;5094068;28;20020;-60
2022/04/27 04:08:11;;;;;;;5.25;4.70;;;;;;;4.04;96.57;95844.34;5097961;28;20027;-60
2022/04/27 04:10:37;;;;;;;4.75;4.45;;;;;;;3.98;96.60;95844.75;5097037;28;20032;-59
2022/04/27 04:13:03;;;;;;;4.72;4.43;;;;;;;3.97;96.18;95840.44;5093965;28;20681;-59
2022/04/27 04:15:29;;;;;;;4.75;4.40;;;;;;;3.97;96.56;95846.50;5098012;28;20031;-60
2022/04/27 04:17:54;;;;;;;5.35;4.95;;;;;;;3.95;96.61;95850.97;5099076;28;20028;-60
2022/04/27 04:20:20;;;;;;;4.22;3.90;;;;;;;3.93;96.91;95855.44;5096040;28;20024;-60
2022/04/27 04:22:47;;;;;;;4.93;4.43;;;;;;;3.92;96.95;95856.38;5096233;28;20093;-63
2022/04/27 04:30:42;;;;;;;4.57;4.20;;;;;;;3.85;96.87;95865.50;5098686;28;20579;-60
2022/04/27 04:33:08;;;;;;;5.40;4.40;;;;;;;3.85;96.43;95868.97;5096918;28;20036;-60
2022/04/27 04:35:35;;;;;;;4.20;3.90;;;;;;;3.84;96.05;95869.88;5096070;28;20062;-61
2022/04/27 04:38:01;;;;;;;4.57;4.18;;;;;;;3.82;95.99;95874.34;5093877;28;20442;-61
2022/04/27 04:40:26;;;;;;;4.35;4.05;;;;;;;3.79;96.35;95881.53;5096570;28;20028;-61
2022/04/27 04:42:52;;;;;;;4.40;4.10;;;;;;;3.82;96.07;95884.78;5097680;28;20390;-61
2022/04/27 04:45:18;;;;;;;7.13;4.35;;;;;;;3.83;96.38;95881.25;5092247;28;20046;-61
2022/04/27 04:47:43;;;;;;;4.00;3.67;;;;;;;3.81;96.80;95880.50;5093889;28;20107;-61
2022/04/27 04:50:10;;;;;;;4.88;4.07;;;;;;;3.75;97.01;95887.84;5093631;28;20034;-61
2022/04/27 04:52:35;;;;;;;4.57;3.80;;;;;;;3.78;97.00;95885.91;5095540;28;20046;-60
2022/04/27 04:55:01;;;;;;;4.85;4.05;;;;;;;3.80;97.19;95896.22;5094590;28;20031;-60
2022/04/27 04:57:26;;;;;;;3.92;3.67;;;;;;;3.80;96.46;95893.59;5074067;28;20028;-60
2022/04/27 04:59:52;;;;;;;4.32;3.97;;;;;;;3.78;97.22;95890.25;5094791;28;20028;-61
2022/04/27 05:02:17;;;;;;;3.55;3.33;;;;;;;3.81;96.61;95895.28;5093253;28;20032;-61
2022/04/27 05:04:43;;;;;;;3.75;3.55;;;;;;;3.85;96.47;95899.34;5093804;28;20027;-60
2022/04/27 05:07:09;;;;;;;4.35;3.90;;;;;;;3.87;96.26;95905.34;5092174;28;20032;-61
2022/04/27 05:09:34;;;;;;;4.30;4.00;;;;;;;3.89;96.02;95903.47;5092924;28;20415;-61
2022/04/27 05:12:00;;;;;;;4.50;4.10;;;;;;;3.93;97.00;95898.88;5095385;28;20024;-60
2022/04/27 05:14:26;;;;;;;4.55;4.25;;;;;;;3.95;96.34;95908.28;5092873;28;20043;-61
2022/04/27 05:16:51;;;;;;;11.25;4.00;;;;;;;3.98;96.61;95913.31;5094963;28;20028;-60
2022/04/27 05:19:16;;;;;;;4.20;3.85;;;;;;;4.04;96.52;95914.69;5095161;28;20032;-61
2022/04/27 05:21:42;;;;;;;4.20;3.75;;;;;;;4.03;96.09;95922.59;5096236;28;20073;-61
2022/04/27 05:24:07;;;;;;;3.72;3.50;;;;;;;3.99;95.71;95914.16;5095820;28;20433;-61
2022/04/27 05:26:33;;;;;;;4.55;3.80;;;;;;;4.01;95.85;95918.31;5095803;28;20398;-61
2022/04/27 05:31:54;;;;;;;4.28;3.95;;;;;;;4.07;95.89;95921.47;5096658;28;20047;-60
2022/04/27 05:34:24;;;;;;;4.50;4.20;;;;;;;4.11;95.78;95920.38;5088878;28;20419;-60
2022/04/27 05:36:50;;;;;;;3.92;3.67;;;;;;;4.12;96.03;95920.25;5095112;28;20027;-60
2022/04/27 05:39:18;;;;;;;4.00;3.70;;;;;;;4.15;95.92;95921.84;5094209;28;20016;-60
2022/04/27 05:41:43;;;;;;;4.63;4.00;;;;;;;4.16;96.47;95919.13;5096486;28;20098;-60
2022/04/27 05:44:09;;;;;;;4.50;4.10;;;;;;;4.18;96.15;95913.81;5085023;28;160234;-60
2022/04/27 05:46:39;;;;;;;4.50;4.20;;;;;;;4.17;95.38;95922.56;5081433;28;20377;-60
2022/04/27 05:49:05;;;;;;;4.65;4.30;;;;;;;4.21;94.88;95912.81;5094225;28;20063;-60
2022/04/27 05:51:30;;;;;;;5.05;4.18;;;;;;;4.27;94.56;95910.63;5093219;28;20443;-60
2022/04/27 05:53:56;;;;;;;5.30;4.80;;;;;;;4.35;94.59;95909.31;5093664;28;20487;-60
2022/04/27 05:56:23;;;;;;;4.70;4.40;;;;;;;4.49;94.05;95914.47;5090499;28;20024;-61
2022/04/27 05:58:49;;;;;;;4.60;4.18;;;;;;;4.71;93.17;95913.91;5094208;28;20364;-61
2022/04/27 06:01:15;;;;;;;5.13;4.32;;;;;;;4.96;92.52;95909.69;5098508;28;20026;-60
2022/04/27 06:03:40;;;;;;;4.78;4.38;;;;;;;5.23;91.86;95910.56;5092975;28;20028;-60
2022/04/27 06:06:06;;;;;;;6.45;3.95;;;;;;;5.53;89.92;95912.88;5090777;28;20016;-61
2022/04/27 06:08:31;;;;;;;4.18;3.83;;;;;;;5.80;87.88;95906.66;5092050;28;20487;-63
2022/04/27 06:10:57;;;;;;;3.33;3.13;;;;;;;6.07;84.06;95910.06;5090147;28;20020;-63
2022/04/27 06:13:24;;;;;;;5.95;3.20;;;;;;;6.31;83.22;95907.50;5091234;28;20079;-62
2022/04/27 06:15:50;;;;;;;4.10;3.75;;;;;;;6.56;82.24;95911.81;5094542;28;20023;-61
2022/04/27 06:18:15;;;;;;;4.95;2.70;;;;;;;7.04;81.43;95910.06;5091142;28;20599;-61
2022/04/27 06:20:40;;;;;;;4.55;3.28;;;;;;;7.41;80.36;95909.06;5095655;28;20024;-62
2022/04/27 06:23:06;;;;;;;3.53;3.13;;;;;;;7.85;76.64;95904.81;5091190;28;20028;-62
2022/04/27 06:25:34;;;;;;;2.85;2.65;;;;;;;8.35;75.52;95906.16;5090498;28;20414;-62
2022/04/27 06:27:59;;;;;;;3.10;2.80;;;;;;;8.88;70.79;95905.44;5094692;28;20036;-62
2022/04/27 06:30:26;;;;;;;3.75;3.13;;;;;;;9.43;67.62;95901.81;5091622;28;20541;-63
2022/04/27 06:32:51;;;;;;;3.03;2.53;;;;;;;9.71;66.92;95909.97;5094153;28;20077;-63
2022/04/27 06:35:17;;;;;;;3.38;2.75;;;;;;;10.12;65.01;95906.53;5093677;28;20028;-62
2022/04/27 06:37:43;;;;;;;3.05;2.67;;;;;;;10.37;62.99;95904.38;5091453;28;20376;-58
2022/04/27 06:40:09;;;;;;;2.80;2.65;;;;;;;10.67;63.79;95910.53;5083862;28;20028;-58
2022/04/27 06:42:36;;;;;;;2.42;2.30;;;;;;;11.10;60.17;95906.66;5093542;28;20112;-60
2022/04/27 06:45:03;;;;;;;2.65;2.55;;;;;;;11.64;60.77;95913.22;5091082;28;20550;-61
2022/04/27 06:47:28;;;;;;;2.55;2.25;;;;;;;12.13;59.41;95907.81;5095409;28;20028;-58
2022/04/27 06:49:54;;;;;;;3.40;1.90;;;;;;;12.49;58.13;95905.25;5091982;28;20528;-57
2022/04/27 06:52:19;;;;;;;2.70;2.50;;;;;;;12.80;57.49;95899.63;5093895;28;20016;-58
2022/04/27 06:54:45;;;;;;;2.30;2.20;;;;;;;13.06;57.06;95900.69;5093529;28;20119;-57
2022/04/27 06:57:10;;;;;;;2.65;2.53;;;;;;;13.27;55.75;95905.63;5090170;28;20020;-57
2022/04/27 06:59:36;;;;;;;2.40;2.30;;;;;;;13.66;54.86;95907.06;5093029;28;20132;-57
2022/04/27 07:02:03;;;;;;;2.10;2.00;;;;;;;13.93;52.91;95905.25;5091548;28;20089;-58
2022/04/27 07:04:32;;;;;;;2.17;2.03;;;;;;;14.31;50.59;95903.94;5091967;28;20053;-58
2022/04/27 07:06:58;;;;;;;2.10;2.00;;;;;;;14.54;49.13;95906.00;5095168;28;20759;-57
2022/04/27 07:09:24;;;;;;;1.80;1.70;;;;;;;14.75;49.14;95902.91;5091721;28;20178;-57
2022/04/27 07:11:49;;;;;;;3.17;2.13;;;;;;;14.85;48.76;95904.59;5091639;28;20094;-57
2022/04/27 07:14:16;;;;;;;2.25;2.05;;;;;;;15.23;48.68;95901.47;5095221;28;20032;-57
2022/04/27 07:16:45;;;;;;;2.17;2.00;;;;;;;15.51;46.14;95898.47;5092354;28;20703;-58
2022/04/27 07:19:12;;;;;;;2.88;2.45;;;;;;;15.60;46.26;95900.13;5093630;28;20028;-57
2022/04/27 07:21:38;;;;;;;2.25;2.05;;;;;;;15.36;47.26;95901.78;5095725;28;20047;-57
2022/04/27 07:24:04;;;;;;;8.10;2.47;;;;;;;15.60;47.40;95905.44;5093454;28;20415;-57
2022/04/27 07:26:30;;;;;;;2.20;2.10;;;;;;;15.70;45.98;95903.41;5091630;28;20038;-57
2022/04/27 07:28:56;;;;;;;2.92;1.88;;;;;;;15.60;46.40;95902.78;5091708;28;20098;-57
2022/04/27 07:31:22;;;;;;;1.98;1.88;;;;;;;16.08;45.53;95900.19;5094258;28;20055;-57
2022/04/27 07:33:48;;;;;;;2.97;2.03;;;;;;;16.19;46.09;95901.63;5093088;28;20028;-57
2022/04/27 07:36:13;;;;;;;3.67;2.30;;;;;;;16.23;44.94;95902.94;5091111;28;20032;-57
2022/04/27 07:38:39;;;;;;;2.25;2.15;;;;;;;16.80;43.75;95895.69;5090985;28;20135;-57
2022/04/27 07:41:06;;;;;;;2.60;2.05;;;;;;;16.55;43.91;95903.81;5092497;28;20479;-57
2022/04/27 07:43:31;;;;;;;2.53;2.42;;;;;;;16.70;43.95;95897.75;5093114;28;20059;-57
2022/04/27 07:45:57;;;;;;;2.58;2.40;;;;;;;16.94;43.41;95899.41;5090288;28;20059;-58
2022/04/27 07:48:22;;;;;;;2.95;2.65;;;;;;;16.95;43.47;95903.72;5091874;28;20028;-57
2022/04/27 07:50:48;;;;;;;2.83;2.53;;;;;;;16.82;43.06;95906.97;5095337;28;20028;-57
2022/04/27 07:53:13;;;;;;;2.67;2.58;;;;;;;17.37;43.18;95906.94;5091390;28;20027;-57
2022/04/27 07:55:39;;;;;;;3.05;2.70;;;;;;;17.02;43.29;95906.53;5092170;28;20043;-58
2022/04/27 07:58:05;;;;;;;3.20;2.97;;;;;;;16.04;45.61;95909.50;5096199;28;20376;-57
2022/04/27 08:00:30;;;;;;;3.80;2.90;;;;;;;16.16;45.70;95907.28;5094432;28;20059;-57
2022/04/27 08:02:56;;;;;;;2.55;2.35;;;;;;;16.82;45.13;95904.31;5090011;28;20070;-57
2022/04/27 08:05:22;;;;;;;2.95;2.75;;;;;;;16.85;45.83;95893.31;5091732;28;20086;-57
2022/04/27 08:07:48;;;;;;;2.78;2.58;;;;;;;17.47;44.71;95899.53;5091563;28;20610;-57
2022/04/27 08:10:18;;;;;;;2.83;2.63;;;;;;;17.24;44.09;95904.91;5094908;28;20036;-57
2022/04/27 08:12:47;;;;;;;5.53;2.97;;;;;;;16.55;47.39;95898.50;5088319;28;20111;-57
2022/04/27 08:15:17;;;;;;;3.30;3.00;;;;;;;16.40;45.24;95900.22;5091227;28;20115;-58
2022/04/27 08:18:00;;;;;;;2.83;2.63;;;;;;;17.13;44.80;95892.84;5090079;28;20032;-57
2022/04/27 08:23:23;;;;;;;3.35;3.15;;;;;;;17.17;45.30;95899.44;5092690;28;20047;-58
2022/04/27 08:25:50;;;;;;;4.47;3.20;;;;;;;17.39;43.63;95896.09;5090183;28;20098;-57
2022/04/27 08:28:17;;;;;;;4.07;2.70;;;;;;;17.29;44.43;95899.84;5094544;28;20024;-57
2022/04/27 08:30:47;;;;;;;3.10;2.90;;;;;;;17.86;43.47;95897.66;5093661;28;20546;-58
2022/04/27 08:33:13;;;;;;;2.70;2.53;;;;;;;18.44;42.71;95897.00;5089657;28;20110;-57
2022/04/27 08:35:39;;;;;;;6.03;2.80;;;;;;;18.16;43.24;95894.19;5092461;28;20032;-58
2022/04/27 08:38:06;;;;;;;2.83;2.63;;;;;;;18.16;43.39;95897.69;5096333;28;20073;-58
2022/04/27 08:40:35;;;;;;;2.90;2.70;;;;;;;17.90;44.53;95890.13;5096441;28;20028;-58
2022/04/27 08:43:01;;;;;;;4.93;3.10;;;;;;;18.18;42.61;95895.66;5095766;28;20056;-57
2022/04/27 08:45:27;;;;;;;3.20;2.78;;;;;;;18.36;42.27;95896.28;5093556;28;20087;-58
2022/04/27 08:47:53;;;;;;;4.75;2.95;;;;;;;17.66;45.05;95897.34;5095420;28;20027;-57
2022/04/27 08:50:21;;;;;;;3.50;3.00;;;;;;;18.04;43.82;95891.16;5096051;28;20024;-58
2022/04/27 08:52:48;;;;;;;5.20;2.60;;;;;;;18.52;40.63;95889.91;5095543;28;20020;-57
2022/04/27 08:55:14;;;;;;;2.47;2.28;;;;;;;18.64;40.83;95888.44;5095830;28;20101;-57
2022/04/27 08:57:40;;;;;;;2.60;2.40;;;;;;;19.14;37.73;95896.56;5094730;28;20067;-57
2022/04/27 09:00:08;;;;;;;2.50;2.35;;;;;;;19.58;40.29;95891.19;5094810;28;20570;-59
2022/04/27 09:02:35;;;;;;;2.50;2.30;;;;;;;19.63;37.21;95891.44;5094581;28;20062;-57
2022/04/27 09:05:18;;;;;;;2.40;2.30;;;;;;;20.17;36.44;95889.94;5094271;28;20089;-57
2022/04/27 09:07:51;;;;;;;3.38;2.05;;;;;;;19.72;36.73;95895.59;5091263;28;20499;-56
2022/04/27 09:10:19;;;;;;;2.30;2.10;;;;;;;20.08;36.36;95890.31;5092765;28;20066;-57
2022/04/27 09:12:52;;;;;;;2.58;2.38;;;;;;;19.85;37.61;95894.03;5095165;28;20486;-57
2022/04/27 09:15:20;;;;;;;2.40;2.30;;;;;;;19.45;40.01;95900.72;5093416;28;20086;-57
2022/04/27 09:20:50;;;;;;;2.63;2.53;;;;;;;20.44;38.17;95887.38;5097563;28;20457;-57
2022/04/27 09:23:22;;;;;;;2.22;2.13;;;;;;;21.18;36.90;95884.09;5096135;28;20028;-57
2022/04/27 09:26:00;;;;;;;2.50;2.30;;;;;;;21.94;34.20;95879.38;5092543;28;20043;-56
2022/04/27 09:28:30;;;;;;;2.83;2.63;;;;;;;21.04;35.68;95875.22;5088911;28;20531;-57
2022/04/27 09:30:56;;;;;;;2.70;2.35;;;;;;;21.58;34.54;95877.94;5096172;28;20020;-58
2022/04/27 09:33:38;;;;;;;2.55;2.35;;;;;;;21.88;34.36;95877.53;5095302;28;20032;-57
2022/04/27 09:36:23;;;;;;;2.72;2.53;;;;;;;21.58;35.85;95867.25;5095017;28;20419;-58
2022/04/27 09:38:50;;;;;;;5.85;2.22;;;;;;;21.76;34.19;95877.34;5094219;28;20028;-58
2022/04/27 09:41:45;;;;;;;4.07;3.03;;;;;;;21.71;33.71;95875.28;5096543;28;20036;-58
2022/04/27 09:44:29;;;;;;;4.22;2.55;;;;;;;20.61;35.89;95876.34;5092029;28;20044;-58
2022/04/27 09:46:55;;;;;;;2.60;2.40;;;;;;;21.17;34.61;95879.78;5095121;28;20082;-58
2022/04/27 09:49:20;;;;;;;2.33;2.22;;;;;;;21.04;37.05;95876.06;5092442;28;20480;-58
2022/04/27 09:51:48;;;;;;;3.60;2.55;;;;;;;22.23;32.05;95874.56;5096176;28;20019;-58
2022/04/27 09:54:23;;;;;;;3.53;2.78;;;;;;;21.23;32.94;95875.47;5094485;28;20028;-58
2022/04/27 09:56:50;;;;;;;3.50;2.63;;;;;;;21.19;34.37;95869.69;5092214;28;20024;-58
2022/04/27 09:59:17;;;;;;;3.10;2.30;;;;;;;20.96;34.73;95870.88;5094874;28;20480;-58
2022/04/27 10:01:43;;;;;;;2.78;2.30;;;;;;;21.28;32.89;95878.34;5095556;28;20066;-58
2022/04/27 10:04:10;;;;;;;6.00;2.95;;;;;;;21.50;32.58;95868.25;5088238;28;20035;-58
2022/04/27 10:06:36;;;;;;;3.85;2.58;;;;;;;21.87;32.24;95865.97;5097527;28;20032;-58
2022/04/27 10:09:04;;;;;;;3.08;2.20;;;;;;;22.12;30.93;95864.47;5097269;28;20027;-58
2022/04/27 10:11:32;;;;;;;2.85;2.30;;;;;;;21.66;33.11;95864.38;5093290;28;20114;-58
2022/04/27 10:13:58;;;;;;;2.40;2.30;;;;;;;21.20;33.71;95868.66;5091433;28;20020;-58
2022/04/27 10:16:25;;;;;;;2.45;2.25;;;;;;;20.95;36.55;95863.09;5095659;28;20035;-58
2022/04/27 10:18:51;;;;;;;2.60;2.40;;;;;;;21.27;34.17;95871.34;5097219;28;20024;-58
2022/04/27 10:21:39;;;;;;;2.63;2.50;;;;;;;21.42;33.92;95863.09;5092586;28;20154;-58
2022/04/27 10:24:09;;;;;;;2.40;2.20;;;;;;;21.44;34.65;95853.84;5093423;28;20043;-58
2022/04/27 10:26:35;;;;;;;2.22;2.03;;;;;;;21.28;34.16;95862.28;5095880;28;20031;-58
2022/04/27 10:29:05;;;;;;;2.63;2.42;;;;;;;21.20;36.51;95859.81;5091381;28;20032;-58
2022/04/27 10:31:47;;;;;;;2.50;2.30;;;;;;;21.43;32.55;95851.34;5095042;28;20032;-58
2022/04/27 10:34:20;;;;;;;2.20;2.00;;;;;;;22.00;31.24;95851.75;5092881;28;20039;-57
2022/04/27 10:36:47;;;;;;;2.17;1.98;;;;;;;21.50;32.72;95848.69;5093898;28;20028;-58
2022/04/27 10:39:13;;;;;;;2.30;2.20;;;;;;;21.63;33.23;95851.38;5091566;28;20523;-58
2022/04/27 10:41:48;;;;;;;5.75;2.42;;;;;;;21.73;33.18;95851.78;5094719;28;20099;-58
2022/04/27 10:44:13;;;;;;;;;;;;;;;22.23;31.99;95849.59;5092565;28;20048;-58
2022/04/27 10:46:41;;;;;;;3.63;2.10;;;;;;;21.92;34.04;95845.78;5093135;28;19912;-58
2022/04/27 10:49:29;;;;;;;2.83;2.33;;;;;;;22.17;32.88;95852.09;5091426;28;20111;-58
2022/04/27 10:51:59;;;;;;;3.42;2.45;;;;;;;22.23;32.00;95845.06;5093904;28;20039;-58
2022/04/27 10:54:31;;;;;;;2.42;2.22;;;;;;;22.15;31.14;95845.28;5093248;28;20129;-58
2022/04/27 10:57:16;;;;;;;4.10;3.70;;;;;;;21.47;33.07;95847.25;5091018;28;20020;-58
2022/04/27 10:59:49;;;;;;;2.30;2.10;;;;;;;21.49;32.08;95849.72;5082907;28;20050;-58
2022/04/27 11:02:41;;;;;;;3.70;2.40;;;;;;;21.55;32.67;95848.88;5091059;28;20100;-58
2022/04/27 11:05:15;;;;;;;2.55;2.35;;;;;;;21.81;32.97;95847.25;5091753;28;20032;-58
2022/04/27 11:07:52;;;;;;;2.63;2.40;;;;;;;21.79;32.33;95844.75;5094532;28;20035;-58
2022/04/27 11:10:21;;;;;;;5.13;2.33;;;;;;;22.04;32.24;95841.41;5096267;28;20384;-58
2022/04/27 11:12:52;;;;;;;5.28;2.50;;;;;;;22.06;32.60;95843.88;5091075;28;20081;-58
2022/04/27 11:15:25;;;;;;;2.22;2.13;;;;;;;21.79;33.62;95839.41;5091644;28;20085;-58
2022/04/27 11:18:03;;;;;;;2.38;2.25;;;;;;;22.79;30.30;95836.59;5090493;28;20171;-58
2022/04/27 11:20:35;;;;;;;2.65;1.80;;;;;;;22.48;30.66;95833.66;5093801;28;20024;-58
2022/04/27 11:23:06;;;;;;;2.28;2.15;;;;;;;22.09;30.78;95830.88;5090840;28;20039;-59
2022/04/27 11:25:38;;;;;;;2.20;2.00;;;;;;;22.25;29.75;95842.16;5093296;28;20030;-58
2022/04/27 11:28:06;;;;;;;1.90;1.80;;;;;;;22.30;30.17;95835.13;5092368;28;20034;-58
2022/04/27 11:30:32;;;;;;;2.55;2.10;;;;;;;22.34;30.41;95835.53;5091166;28;20088;-58
2022/04/27 11:32:59;;;;;;;2.10;2.00;;;;;;;22.67;30.49;95836.44;5090192;28;20027;-58
2022/04/27 11:35:38;;;;;;;4.35;2.40;;;;;;;21.42;33.83;95831.81;5091769;28;20040;-58
2022/04/27 11:38:04;;;;;;;2.45;2.25;;;;;;;22.64;29.21;95834.16;5093962;28;20376;-58
2022/04/27 11:40:36;;;;;;;2.05;1.88;;;;;;;22.31;30.43;95827.91;5091240;28;20077;-57
2022/04/27 11:43:04;;;;;;;2.08;1.98;;;;;;;23.33;29.66;95831.69;5090115;28;20035;-58
2022/04/27 11:45:30;;;;;;;2.13;2.03;;;;;;;23.08;29.44;95829.75;5092202;28;20075;-58
2022/04/27 11:47:57;;;;;;;1.80;1.70;;;;;;;23.59;29.18;95829.81;5092946;28;20055;-58
2022/04/27 11:50:23;;;;;;;1.90;1.80;;;;;;;23.63;29.07;95825.63;5091270;28;20051;-58
2022/04/27 11:52:57;;;;;;;2.58;1.73;;;;;;;23.80;28.46;95822.38;5094377;28;20042;-58
2022/04/27 11:55:22;;;;;;;2.40;2.00;;;;;;;23.96;28.62;95823.63;5093382;28;20063;-58
2022/04/27 11:57:49;;;;;;;2.33;2.13;;;;;;;23.75;31.59;95820.34;5090353;28;20513;-58
2022/04/27 12:00:26;;;;;;;1.98;1.88;;;;;;;24.03;27.44;95817.19;5091526;28;20628;-59